Terminal Aerodrome Forecast
Issued by NWS Cleveland, OH

Home | Current Version | Previous Version | Text Only | Print | Product List | Glossary On
Versions: 1 2 3 4 5 6 7 8 9 10 11 12 13 14 15 16 17
000
FTUS41 KCLE 270000 AAA
TAFERI
TAF AMD
KERI 270046Z 2701/2724 31005KT P6SM BKN025 BKN100
      TEMPO 2701/2703 2SM -SHSN OVC018
     FM270400 33005KT P6SM SCT025 BKN100
     FM270700 33003KT P6SM SCT025
     FM271500 27008KT P6SM SKC=

USA.gov is the U.S. government's official web portal to all federal, state and local government web resources and services.